HAAB

Addis Ababa Bole International Airport

Addis Ababa, Ethiopia
METAR HAAB 170600Z 08010KT 9999 SCT025 16/05 Q1028
Observed Flight Rules
Dec-17 @ 06:00 UTC (2 hours ago) Visual Flight Rules
Wind Visibility Clouds
80° at 10 knots 10,000+ meters
  • Scattered at 2,500' AGL
Temperatures Readings
Current 16°C / 61°F
Dewpoint 5°C / 41°F
Humidity 48%
Altimeter 30.35" Hg
Pressure 1028 hPa
Elevation 2355
METAR HAAB 170600Z 08010KT 9999 SCT025 16/05 Q1028
Observed Flight Rules
Dec-17 @ 06:00 UTC
(2 hours ago)
VFR
Wind Visibility
80° at 10 knots 10,000+ meters
Clouds
  • Scattered at 2,500' AGL
Temperature Dewpoint
16°C / 61°F 5°C / 41°F
Humidity Altimeter Pressure
48% 30.35" Hg 1028 hPa